Time;durP1;ratioP1;P1;durP2;ratioP2;P2;SDS_P1;SDS_P2;PMS_P1;PMS_P2;Temp;Humidity;BMP_temperature;BMP_pressure;BME280_temperature;BME280_humidity;BME280_pressure;Samples;Min_cycle;Max_cycle;Signal;HPM_P1;HPM_P2
2023/03/09 00:00:54;;;;;;;0.13;0.13;;;10.30;99.90;;;;;;4993764;28;20350;-79
2023/03/09 00:03:19;;;;;;;0.52;0.50;;;10.30;99.90;;;;;;5000853;28;20046;-79
2023/03/09 00:05:54;;;;;;;1.20;1.00;;;10.30;99.90;;;;;;4998531;28;20532;-78
2023/03/09 00:08:20;;;;;;;0.30;0.30;;;10.40;99.90;;;;;;4985481;28;20086;-79
2023/03/09 00:10:50;;;;;;;5.93;1.77;;;10.50;99.90;;;;;;5000729;28;20037;-78
2023/03/09 00:13:16;;;;;;;0.40;0.40;;;10.50;99.90;;;;;;4995156;28;20026;-78
2023/03/09 00:15:41;;;;;;;1.15;1.15;;;10.50;99.90;;;;;;4980769;28;20811;-79
2023/03/09 00:18:07;;;;;;;2.40;2.30;;;10.50;99.90;;;;;;4997199;28;20034;-79
2023/03/09 00:20:33;;;;;;;0.60;0.60;;;10.50;99.90;;;;;;4997774;28;20169;-79
2023/03/09 00:23:08;;;;;;;0.30;0.30;;;10.30;99.90;;;;;;4983478;28;20127;-79
2023/03/09 00:25:34;;;;;;;1.40;1.30;;;10.20;99.90;;;;;;4994033;28;20026;-79
2023/03/09 00:28:00;;;;;;;0.80;0.80;;;10.10;99.90;;;;;;4998734;28;20093;-79
2023/03/09 00:30:26;;;;;;;0.65;0.60;;;10.20;99.90;;;;;;4981917;28;20062;-79
2023/03/09 00:32:53;;;;;;;0.60;0.60;;;10.10;99.90;;;;;;4987996;28;20077;-80
2023/03/09 00:35:19;;;;;;;0.20;0.20;;;10.10;99.90;;;;;;4987779;28;20057;-80
2023/03/09 00:37:46;;;;;;;1.63;1.60;;;10.10;99.90;;;;;;4995518;28;20138;-79
2023/03/09 00:40:12;;;;;;;1.58;1.40;;;10.20;99.90;;;;;;4994464;28;20435;-79
2023/03/09 00:42:41;;;;;;;5.18;1.30;;;10.30;99.90;;;;;;4990815;28;20468;-81
2023/03/09 00:45:07;;;;;;;3.60;3.28;;;10.10;99.90;;;;;;4976697;28;20058;-79
2023/03/09 00:47:33;;;;;;;0.20;0.20;;;10.10;99.90;;;;;;4981081;28;20042;-78
2023/03/09 00:49:59;;;;;;;0.20;0.20;;;10.10;99.90;;;;;;4965873;28;20049;-79
2023/03/09 00:52:24;;;;;;;0.50;0.50;;;10.00;99.90;;;;;;4999311;28;20096;-79
2023/03/09 00:54:53;;;;;;;0.60;0.60;;;9.90;99.90;;;;;;4999256;28;20494;-79
2023/03/09 00:57:20;;;;;;;0.22;0.22;;;9.90;99.90;;;;;;4974761;28;20084;-79
2023/03/09 00:59:46;;;;;;;0.30;0.30;;;9.80;99.90;;;;;;4989018;28;20687;-79
2023/03/09 01:02:12;;;;;;;0.20;0.20;;;9.80;99.90;;;;;;4997890;28;20044;-79
2023/03/09 01:04:38;;;;;;;0.93;0.93;;;9.80;99.90;;;;;;4999242;28;20125;-79
2023/03/09 01:07:03;;;;;;;1.42;1.35;;;9.80;99.90;;;;;;5001364;28;20148;-79
2023/03/09 01:09:29;;;;;;;7.65;0.52;;;9.70;99.90;;;;;;4978700;28;20125;-79
2023/03/09 01:11:55;;;;;;;1.55;1.45;;;9.70;99.90;;;;;;5002151;28;20030;-78
2023/03/09 01:14:21;;;;;;;0.80;0.80;;;9.80;99.90;;;;;;4993707;28;20129;-79
2023/03/09 01:16:47;;;;;;;0.10;0.10;;;9.90;99.90;;;;;;4994446;28;20058;-79
2023/03/09 01:19:12;;;;;;;0.10;0.10;;;9.90;99.90;;;;;;5000448;28;20034;-79
2023/03/09 01:21:38;;;;;;;0.50;0.50;;;9.90;99.90;;;;;;4989845;28;20492;-80
2023/03/09 01:24:04;;;;;;;0.82;0.82;;;10.00;99.90;;;;;;4992353;28;20580;-80
2023/03/09 01:26:30;;;;;;;0.68;0.68;;;10.10;99.90;;;;;;5003229;28;20088;-81
2023/03/09 01:28:56;;;;;;;0.20;0.20;;;10.10;99.90;;;;;;4986784;28;20500;-80
2023/03/09 01:31:21;;;;;;;0.80;0.73;;;10.10;99.90;;;;;;4999070;28;20018;-80
2023/03/09 01:33:48;;;;;;;0.40;0.40;;;10.00;99.90;;;;;;4984468;28;20064;-80
2023/03/09 01:36:17;;;;;;;0.10;0.10;;;10.00;99.90;;;;;;4980515;28;20022;-80
2023/03/09 01:38:44;;;;;;;0.13;0.13;;;10.00;99.90;;;;;;4996950;28;20033;-80
2023/03/09 01:41:10;;;;;;;0.30;0.30;;;10.00;99.90;;;;;;4996227;28;20058;-80
2023/03/09 01:43:39;;;;;;;0.55;0.55;;;10.00;99.90;;;;;;4995501;28;20053;-79
2023/03/09 01:46:29;;;;;;;1.23;1.13;;;9.90;99.90;;;;;;4997979;28;20641;-79
2023/03/09 01:49:02;;;;;;;0.10;0.10;;;9.80;99.90;;;;;;4986663;28;20041;-79
2023/03/09 01:51:37;;;;;;;0.20;0.20;;;9.90;99.90;;;;;;4995835;28;20037;-80
2023/03/09 01:54:06;;;;;;;0.10;0.10;;;9.80;99.90;;;;;;4988193;28;20033;-79
2023/03/09 01:56:35;;;;;;;3.20;1.27;;;9.80;99.90;;;;;;5013925;28;20026;-79
2023/03/09 01:59:02;;;;;;;0.22;0.22;;;9.80;99.90;;;;;;4976017;28;20449;-78
2023/03/09 02:01:28;;;;;;;0.55;0.55;;;9.60;99.90;;;;;;4995419;28;20026;-78
2023/03/09 02:04:00;;;;;;;1.83;1.23;;;9.50;99.90;;;;;;4993103;28;20106;-78
2023/03/09 02:06:26;;;;;;;2.10;1.95;;;9.40;99.90;;;;;;4977355;28;20042;-78
2023/03/09 02:09:04;;;;;;;1.83;1.73;;;9.50;99.90;;;;;;4988972;28;20025;-80
2023/03/09 02:11:29;;;;;;;2.60;1.50;;;9.50;99.90;;;;;;4999706;28;20029;-80
2023/03/09 02:13:55;;;;;;;0.30;0.30;;;9.60;99.90;;;;;;4998268;28;20038;-79
2023/03/09 02:16:21;;;;;;;0.10;0.10;;;9.80;99.90;;;;;;4998083;28;20026;-79
2023/03/09 02:18:47;;;;;;;8.95;3.53;;;9.80;99.90;;;;;;4996159;28;20052;-79
2023/03/09 02:21:25;;;;;;;5.10;1.80;;;9.80;99.90;;;;;;4987771;28;20073;-79
2023/03/09 02:24:08;;;;;;;1.25;0.82;;;9.70;99.90;;;;;;4991270;28;20053;-79
2023/03/09 02:26:40;;;;;;;1.35;1.35;;;9.50;99.90;;;;;;4990044;28;20157;-79
2023/03/09 02:29:06;;;;;;;1.08;1.08;;;9.40;99.90;;;;;;4993473;28;20504;-78
2023/03/09 02:31:32;;;;;;;2.72;0.63;;;9.30;99.90;;;;;;4992374;28;20038;-79
2023/03/09 02:33:58;;;;;;;0.40;0.40;;;9.30;99.90;;;;;;4992536;28;20030;-79
2023/03/09 02:36:25;;;;;;;0.38;0.38;;;9.20;99.90;;;;;;4990856;28;20065;-79
2023/03/09 02:38:51;;;;;;;;;;;9.10;99.90;;;;;;4984805;28;20726;-78
2023/03/09 02:41:19;;;;;;;2.73;1.70;;;9.00;99.90;;;;;;4987995;28;19914;-78
2023/03/09 02:43:52;;;;;;;0.20;0.20;;;9.00;99.90;;;;;;4990224;28;20038;-79
2023/03/09 02:46:18;;;;;;;0.10;0.10;;;9.00;99.90;;;;;;4988321;28;20046;-78
2023/03/09 02:48:44;;;;;;;5.97;0.85;;;8.90;99.90;;;;;;4999585;28;20037;-79
2023/03/09 02:51:09;;;;;;;0.20;0.20;;;8.90;99.90;;;;;;4998253;28;20041;-79
2023/03/09 02:53:36;;;;;;;1.15;1.15;;;8.90;99.90;;;;;;4986027;28;20030;-79
2023/03/09 02:56:02;;;;;;;0.10;0.10;;;8.90;99.90;;;;;;4999759;28;20036;-79
2023/03/09 02:58:28;;;;;;;2.40;0.85;;;8.90;99.90;;;;;;4996268;28;20163;-79
2023/03/09 03:00:53;;;;;;;0.77;0.77;;;8.80;99.90;;;;;;4991160;28;20442;-80
2023/03/09 03:03:20;;;;;;;0.70;0.70;;;8.80;99.90;;;;;;4997314;28;20474;-79
2023/03/09 03:05:46;;;;;;;0.10;0.10;;;8.80;99.90;;;;;;4997865;28;20037;-79
2023/03/09 03:08:12;;;;;;;3.78;1.10;;;8.80;99.90;;;;;;4985909;28;20081;-79
2023/03/09 03:10:38;;;;;;;0.13;0.13;;;8.70;99.90;;;;;;4995647;28;20568;-79
2023/03/09 03:13:04;;;;;;;0.50;0.50;;;8.70;99.90;;;;;;4984659;28;20559;-79
2023/03/09 03:15:29;;;;;;;2.97;2.00;;;8.80;99.90;;;;;;4995354;28;20080;-79
2023/03/09 03:17:55;;;;;;;6.03;4.65;;;8.70;99.90;;;;;;4994272;28;20034;-78
2023/03/09 03:20:21;;;;;;;4.38;3.05;;;8.70;99.90;;;;;;4994201;28;21252;-79
2023/03/09 03:22:47;;;;;;;2.13;1.95;;;8.60;99.90;;;;;;4986501;28;20068;-78
2023/03/09 03:25:13;;;;;;;3.75;1.73;;;8.50;99.90;;;;;;4994619;28;20040;-78
2023/03/09 03:27:39;;;;;;;0.20;0.20;;;8.60;99.90;;;;;;4973943;28;20061;-79
2023/03/09 03:30:05;;;;;;;0.57;0.53;;;8.70;99.90;;;;;;4989292;28;20040;-79
2023/03/09 03:32:31;;;;;;;0.57;0.57;;;8.80;99.90;;;;;;4989386;28;20470;-77
2023/03/09 03:34:57;;;;;;;0.10;0.10;;;8.90;99.90;;;;;;4995369;28;20121;-80
2023/03/09 03:37:22;;;;;;;0.30;0.30;;;9.00;99.90;;;;;;4986757;28;20080;-78
2023/03/09 03:39:48;;;;;;;0.70;0.70;;;9.10;99.90;;;;;;4974941;28;20069;-78
2023/03/09 03:42:14;;;;;;;2.28;2.17;;;8.90;99.90;;;;;;4997831;28;20096;-77
2023/03/09 03:44:39;;;;;;;0.88;0.88;;;9.00;99.90;;;;;;4989543;28;20042;-78
2023/03/09 03:47:05;;;;;;;0.10;0.10;;;9.00;99.90;;;;;;4996435;28;20113;-78
2023/03/09 03:49:31;;;;;;;0.10;0.10;;;9.10;99.90;;;;;;4997443;28;20133;-80
2023/03/09 03:51:57;;;;;;;0.47;0.47;;;9.20;99.90;;;;;;4987156;28;20926;-81
2023/03/09 03:54:22;;;;;;;1.13;0.82;;;9.20;99.90;;;;;;4996260;28;20137;-80
2023/03/09 03:56:48;;;;;;;2.63;1.88;;;9.20;99.90;;;;;;4985903;28;20030;-80
2023/03/09 03:59:14;;;;;;;0.10;0.10;;;9.30;99.90;;;;;;4988407;28;20101;-79
2023/03/09 04:01:39;;;;;;;0.25;0.25;;;9.30;99.90;;;;;;5001778;28;20030;-80
2023/03/09 04:04:05;;;;;;;1.45;1.35;;;9.40;99.90;;;;;;4988594;28;20052;-79
2023/03/09 04:06:32;;;;;;;0.10;0.10;;;9.40;99.90;;;;;;5002790;28;20081;-79
2023/03/09 04:08:58;;;;;;;0.20;0.20;;;9.40;99.90;;;;;;5003820;28;20029;-79
2023/03/09 04:11:24;;;;;;;0.20;0.20;;;9.40;99.90;;;;;;5004613;28;20025;-79
2023/03/09 04:13:50;;;;;;;0.10;0.10;;;9.40;99.90;;;;;;4978334;28;20033;-79
2023/03/09 04:16:16;;;;;;;2.95;1.40;;;9.30;99.90;;;;;;4977729;28;20070;-79
2023/03/09 04:18:42;;;;;;;0.30;0.30;;;9.30;99.90;;;;;;4995798;28;20038;-78
2023/03/09 04:21:08;;;;;;;0.30;0.30;;;9.30;99.90;;;;;;4979547;28;20038;-78
2023/03/09 04:23:33;;;;;;;0.50;0.50;;;9.30;99.90;;;;;;4992125;28;20053;-78
2023/03/09 04:26:01;;;;;;;0.10;0.10;;;9.30;99.90;;;;;;4998341;28;20018;-78
2023/03/09 04:28:27;;;;;;;0.30;0.30;;;9.30;99.90;;;;;;4993380;28;20771;-78
2023/03/09 04:30:53;;;;;;;0.20;0.20;;;9.30;99.90;;;;;;4995820;28;20057;-78
2023/03/09 04:33:20;;;;;;;1.80;1.70;;;9.40;99.90;;;;;;4978061;28;20038;-79
2023/03/09 04:35:45;;;;;;;2.17;2.03;;;9.40;99.90;;;;;;4998888;28;20034;-79
2023/03/09 04:38:11;;;;;;;1.38;1.27;;;9.50;99.90;;;;;;4970725;28;20030;-80
2023/03/09 04:40:37;;;;;;;5.47;0.88;;;9.40;99.90;;;;;;4997097;28;20030;-78
2023/03/09 04:43:04;;;;;;;1.00;1.00;;;9.30;99.90;;;;;;4981612;28;20093;-78
2023/03/09 04:45:30;;;;;;;13.60;0.52;;;9.30;99.90;;;;;;4993124;28;20049;-80
2023/03/09 04:47:56;;;;;;;0.17;0.17;;;9.40;99.90;;;;;;4974628;28;20062;-78
2023/03/09 04:50:23;;;;;;;1.35;0.85;;;9.40;99.90;;;;;;4999666;28;20563;-78
2023/03/09 04:52:49;;;;;;;0.10;0.10;;;9.40;99.90;;;;;;5001621;28;20038;-78
2023/03/09 04:55:16;;;;;;;0.30;0.30;;;9.40;99.90;;;;;;5002625;28;20265;-78
2023/03/09 04:57:42;;;;;;;0.40;0.40;;;9.40;99.90;;;;;;4994903;28;20026;-78
2023/03/09 05:00:10;;;;;;;0.10;0.10;;;9.40;99.90;;;;;;5000580;28;20029;-78
2023/03/09 05:02:37;;;;;;;4.85;1.45;;;9.50;99.90;;;;;;4995143;28;20048;-78
2023/03/09 05:05:03;;;;;;;0.68;0.68;;;9.50;99.90;;;;;;4998808;28;20034;-79
2023/03/09 05:07:28;;;;;;;0.10;0.10;;;9.50;99.90;;;;;;4999091;28;20690;-78
2023/03/09 05:09:54;;;;;;;0.10;0.10;;;9.50;99.90;;;;;;4983485;28;20563;-79
2023/03/09 05:12:20;;;;;;;0.43;0.43;;;9.50;99.90;;;;;;4994199;28;20029;-79
2023/03/09 05:14:45;;;;;;;0.10;0.10;;;9.50;99.90;;;;;;4998298;28;20562;-78
2023/03/09 05:17:11;;;;;;;1.98;1.05;;;9.50;99.90;;;;;;5001333;28;20079;-79
2023/03/09 05:19:37;;;;;;;0.10;0.10;;;9.40;99.90;;;;;;4994322;28;20037;-79
2023/03/09 05:22:03;;;;;;;0.20;0.20;;;9.40;99.90;;;;;;4995226;28;20026;-79
2023/03/09 05:24:29;;;;;;;1.52;1.15;;;9.40;99.90;;;;;;4995746;28;20054;-78
2023/03/09 05:26:55;;;;;;;0.65;0.65;;;9.50;99.90;;;;;;4998700;28;20031;-79
2023/03/09 05:29:21;;;;;;;0.88;0.88;;;9.50;99.90;;;;;;4991775;28;20022;-78
2023/03/09 05:31:46;;;;;;;0.75;0.65;;;9.50;99.90;;;;;;4986002;28;20036;-79
2023/03/09 05:34:12;;;;;;;0.22;0.22;;;9.50;99.90;;;;;;4993387;28;20030;-79
2023/03/09 05:36:38;;;;;;;0.30;0.30;;;9.40;99.90;;;;;;5000349;28;20124;-79
2023/03/09 05:39:04;;;;;;;0.50;0.50;;;9.30;99.90;;;;;;5002988;28;20495;-80
2023/03/09 05:41:30;;;;;;;0.20;0.20;;;9.30;99.90;;;;;;4998384;28;20026;-82
2023/03/09 05:43:59;;;;;;;4.93;0.80;;;9.40;99.90;;;;;;4983338;28;20109;-81
2023/03/09 05:46:24;;;;;;;2.15;1.63;;;9.50;99.90;;;;;;4992735;28;20026;-81
2023/03/09 05:48:50;;;;;;;9.27;1.75;;;9.50;99.90;;;;;;4988151;28;20085;-81
2023/03/09 05:51:16;;;;;;;0.20;0.20;;;9.50;99.90;;;;;;4990357;28;20163;-80
2023/03/09 05:53:41;;;;;;;0.08;0.08;;;9.50;99.90;;;;;;4984781;28;20042;-81
2023/03/09 05:56:07;;;;;;;0.77;0.77;;;9.40;99.90;;;;;;4996984;28;20549;-80
2023/03/09 05:58:34;;;;;;;0.10;0.10;;;9.40;99.90;;;;;;4998237;28;20243;-80
2023/03/09 06:01:00;;;;;;;0.40;0.40;;;9.30;99.90;;;;;;5001057;28;20071;-81
2023/03/09 06:03:26;;;;;;;0.00;0.00;;;9.30;99.90;;;;;;4990629;28;20152;-81
2023/03/09 06:06:03;;;;;;;0.10;0.10;;;9.30;99.90;;;;;;5001720;28;20109;-81
2023/03/09 06:08:29;;;;;;;0.50;0.50;;;9.30;99.90;;;;;;4977699;28;20453;-82
2023/03/09 06:10:58;;;;;;;0.85;0.85;;;9.30;99.90;;;;;;4993447;28;20101;-82
2023/03/09 06:13:24;;;;;;;2.67;0.90;;;9.40;99.90;;;;;;4990195;28;20030;-82
2023/03/09 06:15:50;;;;;;;0.45;0.45;;;9.40;99.90;;;;;;4992913;28;20540;-82
2023/03/09 06:18:17;;;;;;;0.47;0.47;;;9.50;99.90;;;;;;4999646;28;20070;-82
2023/03/09 06:20:43;;;;;;;4.22;3.83;;;9.50;99.90;;;;;;4996273;28;20088;-81
2023/03/09 06:23:09;;;;;;;6.70;5.55;;;9.50;99.90;;;;;;4994582;28;20128;-81
2023/03/09 06:25:36;;;;;;;3.97;0.98;;;9.50;99.90;;;;;;4979458;28;20030;-82
2023/03/09 06:28:02;;;;;;;0.10;0.10;;;9.40;99.90;;;;;;4992462;28;20060;-82
2023/03/09 06:30:28;;;;;;;3.20;1.52;;;9.50;99.90;;;;;;4991784;28;20037;-81
2023/03/09 06:32:56;;;;;;;7.55;2.08;;;9.50;99.90;;;;;;4992228;28;20036;-82
2023/03/09 06:35:22;;;;;;;1.88;1.70;;;9.60;99.90;;;;;;4997213;28;20152;-81
2023/03/09 06:37:47;;;;;;;0.57;0.57;;;9.50;99.90;;;;;;4997996;28;20038;-81
2023/03/09 06:40:13;;;;;;;0.22;0.22;;;9.50;99.90;;;;;;4991903;28;20064;-81
2023/03/09 06:42:40;;;;;;;0.13;0.13;;;9.50;99.90;;;;;;4989886;28;20113;-81
2023/03/09 06:45:07;;;;;;;1.08;1.08;;;9.30;99.90;;;;;;4977747;28;20430;-80
2023/03/09 06:47:32;;;;;;;;;;;9.30;99.90;;;;;;4976324;28;20030;-83
2023/03/09 06:49:58;;;;;;;0.10;0.10;;;9.60;99.90;;;;;;4996326;28;20364;-83
2023/03/09 06:52:25;;;;;;;1.98;1.80;;;9.80;99.90;;;;;;4999378;28;20034;-85
2023/03/09 06:54:54;;;;;;;1.55;1.50;;;9.90;99.90;;;;;;4994388;28;20025;-85
2023/03/09 06:57:19;;;;;;;0.30;0.30;;;10.00;99.90;;;;;;4996419;28;20030;-80
2023/03/09 06:59:45;;;;;;;7.10;5.35;;;9.90;99.90;;;;;;4980958;28;20231;-79
2023/03/09 07:02:12;;;;;;;0.50;0.50;;;9.90;99.90;;;;;;4987971;28;20484;-79
2023/03/09 07:04:37;;;;;;;;;;;9.90;99.90;;;;;;4991871;28;20528;-80
2023/03/09 07:07:03;;;;;;;0.27;0.27;;;9.80;99.90;;;;;;5011496;28;19917;-80
2023/03/09 07:09:31;;;;;;;1.50;1.40;;;9.70;99.90;;;;;;5013718;28;20056;-79
2023/03/09 07:11:58;;;;;;;0.43;0.43;;;9.70;99.90;;;;;;4997457;28;20022;-79
2023/03/09 07:14:24;;;;;;;2.65;2.42;;;10.00;99.90;;;;;;5000502;28;20745;-79
2023/03/09 07:16:54;;;;;;;0.55;0.55;;;10.80;99.90;;;;;;4996884;28;20125;-79
2023/03/09 07:19:20;;;;;;;4.63;0.68;;;11.40;99.90;;;;;;5006154;28;20638;-78
2023/03/09 07:21:46;;;;;;;0.22;0.22;;;12.60;99.90;;;;;;4986811;28;20030;-79
2023/03/09 07:24:13;;;;;;;0.30;0.30;;;13.20;99.90;;;;;;5001609;28;20061;-79
2023/03/09 07:26:39;;;;;;;0.20;0.20;;;12.40;99.90;;;;;;4995300;28;20070;-80
2023/03/09 07:29:05;;;;;;;0.20;0.20;;;11.60;99.90;;;;;;4993106;28;20030;-80
2023/03/09 07:31:30;;;;;;;0.17;0.17;;;11.70;99.90;;;;;;4979090;28;20061;-81
2023/03/09 07:33:57;;;;;;;0.98;0.88;;;12.30;99.90;;;;;;4975306;28;20057;-80
2023/03/09 07:36:23;;;;;;;4.45;2.55;;;12.60;99.90;;;;;;4982622;28;20027;-81
2023/03/09 07:38:50;;;;;;;0.20;0.20;;;12.00;99.90;;;;;;5018475;28;20044;-80
2023/03/09 07:41:16;;;;;;;;;;;11.30;99.90;;;;;;5005223;28;20315;-80
2023/03/09 07:43:43;;;;;;;0.97;0.97;;;10.90;99.90;;;;;;5008369;28;19917;-81
2023/03/09 07:46:15;;;;;;;0.10;0.10;;;12.20;99.90;;;;;;5002968;28;20300;-81
2023/03/09 07:48:42;;;;;;;0.00;0.00;;;13.50;99.90;;;;;;4992501;28;20028;-81
2023/03/09 07:51:08;;;;;;;;;;;14.60;99.90;;;;;;5010551;28;20033;-80
2023/03/09 07:53:36;;;;;;;0.50;0.50;;;15.00;99.90;;;;;;5016750;28;19909;-81
2023/03/09 07:56:03;;;;;;;1.77;1.67;;;14.80;99.90;;;;;;4998164;28;20038;-81
2023/03/09 07:58:34;;;;;;;0.40;0.20;;;15.60;99.90;;;;;;4990211;28;20028;-81
2023/03/09 08:01:00;;;;;;;0.32;0.28;;;16.80;99.90;;;;;;5007123;28;20019;-80
2023/03/09 08:03:27;;;;;;;0.15;0.15;;;15.70;99.90;;;;;;4971549;28;20053;-82
2023/03/09 08:05:55;;;;;;;0.03;0.03;;;14.10;99.90;;;;;;5009325;28;20113;-81
2023/03/09 08:08:25;;;;;;;1.23;0.60;;;12.90;99.90;;;;;;5006787;28;20649;-80
2023/03/09 08:10:52;;;;;;;0.35;0.35;;;12.50;99.90;;;;;;4992092;28;20030;-81
2023/03/09 08:13:18;;;;;;;;;;;12.60;99.90;;;;;;5006874;28;20022;-81
2023/03/09 08:15:44;;;;;;;1.20;1.20;;;12.80;99.90;;;;;;5008694;28;19917;-81
2023/03/09 08:18:10;;;;;;;31.00;1.07;;;13.10;99.90;;;;;;4993143;28;20100;-80
2023/03/09 08:20:36;;;;;;;0.10;0.10;;;13.90;99.90;;;;;;4990773;28;20058;-81
2023/03/09 08:23:03;;;;;;;0.17;0.17;;;15.10;99.90;;;;;;4997569;28;21047;-82
2023/03/09 08:25:29;;;;;;;0.38;0.38;;;13.90;99.90;;;;;;4992691;28;20454;-81
2023/03/09 08:27:55;;;;;;;0.10;0.10;;;13.30;99.90;;;;;;5004777;28;20034;-80
2023/03/09 08:30:21;;;;;;;0.00;0.00;;;13.10;99.90;;;;;;5003193;28;20360;-81
2023/03/09 08:32:48;;;;;;;0.00;0.00;;;13.00;99.90;;;;;;5004573;28;20132;-80
2023/03/09 08:35:15;;;;;;;1.27;0.55;;;14.30;99.90;;;;;;4997052;28;20054;-81
2023/03/09 08:37:41;;;;;;;0.13;0.13;;;15.80;99.90;;;;;;4996677;28;20022;-82
2023/03/09 08:40:09;;;;;;;0.10;0.10;;;17.30;99.90;;;;;;5000424;28;20040;-81
2023/03/09 08:42:35;;;;;;;0.70;0.70;;;17.50;99.90;;;;;;5001710;28;20040;-81
2023/03/09 08:45:01;;;;;;;5.63;1.60;;;18.00;99.90;;;;;;5000354;28;20057;-81
2023/03/09 08:47:27;;;;;;;5.57;2.65;;;17.50;99.90;;;;;;4998032;28;20057;-81
2023/03/09 08:49:53;;;;;;;0.10;0.10;;;17.90;99.90;;;;;;5002277;28;20104;-82
2023/03/09 08:52:19;;;;;;;0.10;0.10;;;18.40;99.90;;;;;;5000751;28;20053;-81
2023/03/09 08:54:46;;;;;;;0.70;0.70;;;18.80;99.90;;;;;;4998449;28;20026;-82
2023/03/09 08:57:11;;;;;;;0.35;0.35;;;19.00;99.90;;;;;;5003017;28;20548;-82
2023/03/09 08:59:37;;;;;;;0.63;0.63;;;19.20;99.90;;;;;;5000379;28;20792;-81
2023/03/09 09:02:03;;;;;;;0.43;0.43;;;19.20;99.90;;;;;;5000801;28;20038;-81
2023/03/09 09:04:29;;;;;;;0.70;0.70;;;19.00;99.90;;;;;;4995693;28;20092;-81
2023/03/09 09:06:55;;;;;;;0.40;0.40;;;19.60;99.40;;;;;;4996714;28;20112;-81
2023/03/09 09:09:20;;;;;;;0.20;0.20;;;20.00;98.70;;;;;;5000886;28;20041;-81
2023/03/09 09:11:46;;;;;;;0.22;0.22;;;19.10;99.70;;;;;;5000560;28;21113;-83
2023/03/09 09:14:12;;;;;;;1.17;1.07;;;20.10;98.40;;;;;;5000800;28;20049;-81
2023/03/09 09:16:38;;;;;;;0.70;0.57;;;19.90;97.80;;;;;;4999659;28;20030;-81
2023/03/09 09:19:03;;;;;;;0.33;0.33;;;20.40;96.90;;;;;;4996930;28;20268;-81
2023/03/09 09:21:30;;;;;;;0.50;0.50;;;19.70;96.90;;;;;;4993591;28;20088;-82
2023/03/09 09:23:56;;;;;;;2.60;0.95;;;19.20;97.50;;;;;;4992214;28;20034;-82
2023/03/09 09:26:23;;;;;;;0.00;0.00;;;18.70;97.50;;;;;;4987447;28;20105;-81
2023/03/09 09:28:48;;;;;;;2.78;1.42;;;18.70;98.30;;;;;;5002283;28;20038;-82
2023/03/09 09:31:23;;;;;;;0.30;0.30;;;17.30;99.60;;;;;;4973697;28;20108;-80
2023/03/09 09:33:48;;;;;;;1.52;1.42;;;17.30;99.90;;;;;;5001371;28;20139;-82
2023/03/09 09:36:17;;;;;;;1.30;1.20;;;16.40;99.90;;;;;;5002515;28;20788;-82
2023/03/09 09:38:43;;;;;;;0.20;0.20;;;17.10;99.90;;;;;;4992847;28;20476;-80
2023/03/09 09:41:11;;;;;;;0.73;0.40;;;16.40;99.90;;;;;;4994567;28;20125;-81
2023/03/09 09:43:38;;;;;;;0.08;0.08;;;16.20;99.90;;;;;;5001143;28;20038;-81
2023/03/09 09:46:05;;;;;;;0.88;0.88;;;17.80;99.90;;;;;;4992292;28;20453;-81
2023/03/09 09:48:32;;;;;;;0.55;0.55;;;18.00;99.90;;;;;;4999898;28;20026;-81
2023/03/09 09:51:01;;;;;;;0.88;0.65;;;17.50;99.90;;;;;;4999916;28;20061;-82
2023/03/09 09:53:51;;;;;;;0.22;0.20;;;16.90;99.90;;;;;;4997279;28;20037;-84
2023/03/09 09:56:22;;;;;;;0.20;0.20;;;16.50;99.90;;;;;;4994896;28;20486;-81
2023/03/09 09:59:01;;;;;;;1.00;0.75;;;16.00;99.90;;;;;;4978821;28;20034;-81
2023/03/09 10:01:35;;;;;;;19.88;1.00;;;15.50;99.90;;;;;;4983792;28;20038;-84
2023/03/09 10:04:07;;;;;;;4.68;2.28;;;15.00;99.90;;;;;;4999774;28;20478;-80
2023/03/09 10:06:33;;;;;;;0.20;0.20;;;14.90;99.90;;;;;;5000256;28;20026;-81
2023/03/09 10:09:04;;;;;;;0.30;0.30;;;15.10;99.90;;;;;;4992246;28;20018;-81
2023/03/09 10:11:45;;;;;;;0.00;0.00;;;15.40;99.90;;;;;;4997925;28;20022;-81
2023/03/09 10:14:30;;;;;;;0.80;0.80;;;16.00;99.90;;;;;;4995625;28;20065;-81
2023/03/09 10:17:28;;;;;;;9.25;1.55;;;17.30;99.90;;;;;;4994658;28;20022;-80
2023/03/09 10:19:57;;;;;;;1.15;0.68;;;16.70;99.90;;;;;;4972776;28;20123;-82
2023/03/09 10:22:25;;;;;;;0.90;0.90;;;16.70;99.90;;;;;;4987241;28;20080;-81
2023/03/09 10:24:53;;;;;;;1.60;1.15;;;16.70;99.90;;;;;;5000758;28;20500;-80
2023/03/09 10:27:47;;;;;;;1.35;0.90;;;16.20;99.90;;;;;;4989004;28;20026;-82
2023/03/09 10:30:25;;;;;;;0.73;0.73;;;16.20;99.90;;;;;;4975170;28;20080;-82
2023/03/09 10:32:59;;;;;;;0.10;0.10;;;16.30;99.90;;;;;;4991310;28;20029;-81
2023/03/09 10:35:46;;;;;;;0.20;0.20;;;16.10;99.90;;;;;;4997630;28;20034;-81
2023/03/09 10:38:19;;;;;;;0.28;0.28;;;15.40;99.90;;;;;;5000430;28;20018;-81
2023/03/09 10:40:54;;;;;;;0.98;0.75;;;15.20;99.90;;;;;;4996047;28;20100;-81
2023/03/09 10:43:32;;;;;;;1.88;0.85;;;15.40;99.90;;;;;;4996141;28;20412;-80
2023/03/09 10:46:16;;;;;;;1.35;1.25;;;15.40;99.90;;;;;;4998885;28;20064;-81
2023/03/09 10:48:43;;;;;;;2.10;0.98;;;15.30;99.90;;;;;;4994550;28;20018;-83
2023/03/09 10:51:28;;;;;;;1.55;0.45;;;15.40;99.90;;;;;;4999679;28;20038;-81
2023/03/09 10:53:56;;;;;;;3.55;2.17;;;16.50;99.90;;;;;;4990019;28;20158;-80
2023/03/09 10:56:30;;;;;;;0.60;0.55;;;16.60;99.90;;;;;;5000344;28;20022;-82
2023/03/09 10:59:12;;;;;;;0.10;0.10;;;17.10;99.90;;;;;;4995327;28;20072;-81
2023/03/09 11:01:40;;;;;;;0.30;0.30;;;17.10;99.90;;;;;;5000823;28;20526;-81
2023/03/09 11:04:21;;;;;;;0.08;0.08;;;16.50;99.90;;;;;;4998954;28;20076;-81
2023/03/09 11:06:50;;;;;;;1.50;1.23;;;16.50;99.90;;;;;;4993633;28;20033;-82
2023/03/09 11:09:25;;;;;;;0.17;0.17;;;17.40;99.90;;;;;;4997586;28;20029;-80
2023/03/09 11:11:51;;;;;;;6.85;1.45;;;17.40;99.90;;;;;;4979572;28;20041;-81
2023/03/09 11:14:31;;;;;;;0.40;0.40;;;17.10;99.80;;;;;;5001249;28;20034;-82
2023/03/09 11:17:00;;;;;;;4.18;0.50;;;16.30;99.90;;;;;;4999130;28;20134;-82
2023/03/09 11:19:28;;;;;;;0.30;0.30;;;16.10;99.90;;;;;;5001050;28;20564;-82
2023/03/09 11:21:56;;;;;;;0.63;0.63;;;16.10;99.90;;;;;;4987907;28;20042;-81
2023/03/09 11:24:44;;;;;;;3.13;0.60;;;16.20;99.90;;;;;;5001751;28;20145;-81
2023/03/09 11:27:20;;;;;;;0.22;0.22;;;16.10;99.90;;;;;;5001799;28;20077;-82
2023/03/09 11:30:14;;;;;;;0.85;0.85;;;15.90;99.90;;;;;;5005531;28;20073;-82
2023/03/09 11:32:40;;;;;;;0.85;0.60;;;16.10;99.90;;;;;;5000429;28;20113;-80
2023/03/09 11:35:12;;;;;;;0.20;0.20;;;16.40;99.90;;;;;;5003080;28;20038;-83
2023/03/09 11:37:53;;;;;;;2.80;2.50;;;16.70;99.90;;;;;;4987545;28;20048;-82
2023/03/09 11:40:22;;;;;;;0.35;0.35;;;16.20;99.90;;;;;;4995298;28;20061;-81
2023/03/09 11:43:14;;;;;;;2.63;1.55;;;16.50;99.90;;;;;;5000697;28;20010;-83
2023/03/09 11:45:42;;;;;;;0.10;0.10;;;16.20;99.90;;;;;;5003452;28;20108;-81
2023/03/09 11:48:19;;;;;;;0.08;0.08;;;16.20;99.90;;;;;;5002159;28;20652;-81
2023/03/09 11:51:14;;;;;;;3.72;0.40;;;16.60;99.60;;;;;;4993078;28;20035;-80
2023/03/09 11:53:43;;;;;;;0.20;0.20;;;16.10;99.90;;;;;;4988538;28;20025;-80
2023/03/09 11:56:24;;;;;;;1.67;0.60;;;15.80;99.90;;;;;;4995853;28;20114;-83
2023/03/09 11:59:00;;;;;;;0.98;0.98;;;16.10;99.90;;;;;;4997746;28;20022;-81
2023/03/09 12:01:40;;;;;;;0.73;0.55;;;16.20;99.90;;;;;;4999660;28;20061;-81
2023/03/09 12:04:07;;;;;;;0.30;0.30;;;16.30;99.90;;;;;;4989511;28;20205;-81
2023/03/09 12:06:43;;;;;;;1.35;1.02;;;16.40;99.90;;;;;;4997247;28;20516;-81
2023/03/09 12:09:25;;;;;;;1.13;1.03;;;16.60;99.90;;;;;;5001830;28;20022;-82
2023/03/09 12:12:28;;;;;;;0.10;0.10;;;16.40;99.90;;;;;;4989081;28;20064;-81
2023/03/09 12:15:03;;;;;;;0.25;0.25;;;16.30;99.90;;;;;;4999053;28;20053;-81
2023/03/09 12:17:36;;;;;;;0.80;0.63;;;16.00;99.90;;;;;;4983474;28;20558;-81
2023/03/09 12:20:03;;;;;;;10.70;0.50;;;15.80;99.90;;;;;;4995218;28;20037;-82
2023/03/09 12:22:37;;;;;;;1.75;1.65;;;16.10;99.90;;;;;;4992419;28;20053;-81
2023/03/09 12:25:06;;;;;;;0.00;0.00;;;15.90;99.90;;;;;;4986337;28;20149;-81
2023/03/09 12:27:34;;;;;;;1.23;0.95;;;15.90;99.90;;;;;;4974117;28;20085;-80
2023/03/09 12:30:00;;;;;;;1.35;0.63;;;16.10;99.90;;;;;;4982127;28;20034;-81
2023/03/09 12:32:25;;;;;;;1.30;0.93;;;16.10;99.90;;;;;;5003224;28;20031;-80
2023/03/09 12:35:00;;;;;;;0.30;0.30;;;16.00;99.90;;;;;;4999913;28;20733;-80
2023/03/09 12:37:28;;;;;;;0.63;0.63;;;15.90;99.90;;;;;;5002351;28;20056;-80
2023/03/09 12:40:04;;;;;;;1.23;1.13;;;16.00;99.90;;;;;;4988640;28;20027;-80
2023/03/09 12:42:39;;;;;;;8.20;0.90;;;16.50;99.40;;;;;;5001976;28;20088;-82
2023/03/09 12:45:16;;;;;;;0.20;0.20;;;16.30;98.30;;;;;;4990934;28;20078;-81
2023/03/09 12:47:54;;;;;;;0.10;0.10;;;16.30;98.40;;;;;;5002903;28;20053;-81
2023/03/09 12:50:20;;;;;;;0.88;0.88;;;16.60;97.80;;;;;;5002977;28;20112;-80
2023/03/09 12:53:15;;;;;;;0.50;0.50;;;16.50;97.50;;;;;;4999166;28;20033;-80
2023/03/09 12:55:49;;;;;;;1.95;1.85;;;16.40;97.60;;;;;;5002153;28;20025;-80
2023/03/09 12:58:17;;;;;;;0.32;0.32;;;16.50;98.00;;;;;;5003981;28;20026;-80
2023/03/09 13:01:08;;;;;;;0.10;0.10;;;16.70;96.60;;;;;;4986881;28;20049;-81